createdAt,value
2018-07-23T00:01:47.467Z,19.40
2018-07-23T00:04:15.526Z,19.40
2018-07-23T00:06:43.560Z,19.30
2018-07-23T00:09:11.589Z,19.20
2018-07-23T00:11:39.657Z,19.00
2018-07-23T00:14:07.733Z,18.90
2018-07-23T00:16:35.797Z,18.80
2018-07-23T00:19:03.858Z,18.60
2018-07-23T00:21:31.897Z,18.50
2018-07-23T00:24:00.000Z,18.40
2018-07-23T00:26:28.036Z,18.30
2018-07-23T00:28:56.094Z,18.20
2018-07-23T00:31:24.233Z,18.10
2018-07-23T00:33:52.268Z,18.00
2018-07-23T00:36:20.352Z,18.00
2018-07-23T00:41:16.232Z,17.80
2018-07-23T00:43:44.282Z,17.80
2018-07-23T00:46:12.321Z,17.70
2018-07-23T00:48:40.369Z,17.70
2018-07-23T00:51:08.396Z,17.60
2018-07-23T00:56:04.392Z,17.60
2018-07-23T00:58:32.432Z,17.50
2018-07-23T01:01:00.533Z,17.50
2018-07-23T01:03:28.561Z,17.40
2018-07-23T01:05:56.656Z,17.40
2018-07-23T01:10:52.588Z,17.40
2018-07-23T01:13:20.632Z,17.50
2018-07-23T01:15:48.669Z,17.50
2018-07-23T01:18:16.725Z,17.50
2018-07-23T01:20:44.781Z,17.50
2018-07-23T01:23:12.883Z,17.40
2018-07-23T01:25:40.909Z,17.40
2018-07-23T01:28:08.964Z,17.30
2018-07-23T01:30:37.084Z,17.30
2018-07-23T01:33:05.124Z,17.20
2018-07-23T01:35:33.236Z,17.20
2018-07-23T01:38:01.297Z,17.20
2018-07-23T01:40:29.348Z,17.10
2018-07-23T01:42:57.423Z,17.20
2018-07-23T01:45:25.460Z,17.10
2018-07-23T01:47:53.520Z,17.10
2018-07-23T01:50:21.553Z,17.10
2018-07-23T01:52:49.600Z,17.00
2018-07-23T01:55:17.697Z,17.00
2018-07-23T01:57:45.712Z,16.90
2018-07-23T02:00:13.813Z,16.90
2018-07-23T02:05:09.801Z,16.80
2018-07-23T02:07:37.952Z,16.80
2018-07-23T02:12:34.832Z,16.70
2018-07-23T02:15:02.844Z,16.70
2018-07-23T02:17:30.880Z,16.90
2018-07-23T02:19:58.926Z,16.90
2018-07-23T02:22:26.965Z,16.90
2018-07-23T02:24:55.025Z,17.00
2018-07-23T02:27:23.072Z,17.00
2018-07-23T02:29:51.149Z,17.00
2018-07-23T02:34:47.352Z,16.80
2018-07-23T02:37:15.402Z,16.70
2018-07-23T02:39:43.800Z,16.60
2018-07-23T02:42:11.834Z,16.60
2018-07-23T02:44:39.881Z,16.60
2018-07-23T02:47:08.681Z,16.50
2018-07-23T02:49:36.773Z,16.50
2018-07-23T02:52:04.828Z,16.40
2018-07-23T02:54:33.576Z,16.40
2018-07-23T02:57:01.601Z,16.40
2018-07-23T02:59:29.915Z,16.50
2018-07-23T03:01:57.929Z,16.50
2018-07-23T03:04:25.984Z,16.70
2018-07-23T03:06:54.082Z,16.70
2018-07-23T03:09:22.097Z,16.70
2018-07-23T03:11:50.140Z,16.60
2018-07-23T03:14:18.184Z,16.60
2018-07-23T03:16:46.239Z,16.50
2018-07-23T03:19:14.284Z,16.50
2018-07-23T03:21:42.389Z,16.50
2018-07-23T03:24:10.411Z,16.50
2018-07-23T03:26:38.437Z,16.50
2018-07-23T03:29:06.493Z,16.50
2018-07-23T03:31:34.549Z,16.40
2018-07-23T03:34:02.615Z,16.50
2018-07-23T03:36:30.640Z,16.50
2018-07-23T03:38:58.700Z,16.50
2018-07-23T03:43:54.598Z,16.50
2018-07-23T03:46:22.712Z,16.40
2018-07-23T03:51:19.279Z,16.30
2018-07-23T03:53:47.316Z,16.30
2018-07-23T03:56:15.379Z,16.30
2018-07-23T03:58:43.413Z,16.30
2018-07-23T04:03:39.402Z,16.30
2018-07-23T04:06:07.464Z,16.30
2018-07-23T04:08:35.744Z,16.30
2018-07-23T04:11:03.808Z,16.30
2018-07-23T04:13:31.876Z,16.30
2018-07-23T04:15:59.961Z,16.30
2018-07-23T04:20:55.847Z,16.40
2018-07-23T04:23:23.905Z,16.40
2018-07-23T04:25:51.989Z,16.40
2018-07-23T04:28:20.029Z,16.50
2018-07-23T04:30:48.133Z,16.50
2018-07-23T04:33:16.274Z,16.60
2018-07-23T04:35:44.312Z,16.70
2018-07-23T04:38:12.425Z,16.80
2018-07-23T04:40:40.438Z,17.00
2018-07-23T04:43:08.496Z,17.10
2018-07-23T04:45:36.544Z,17.20
2018-07-23T04:48:04.672Z,17.30
2018-07-23T04:50:32.787Z,17.40
2018-07-23T04:53:00.788Z,17.40
2018-07-23T04:57:56.787Z,17.40
2018-07-23T05:00:24.853Z,17.40
2018-07-23T05:02:52.881Z,17.40
2018-07-23T05:07:48.880Z,17.50
2018-07-23T05:10:16.948Z,17.50
2018-07-23T05:12:44.973Z,17.60
2018-07-23T05:15:13.053Z,17.70
2018-07-23T05:17:41.109Z,17.80
2018-07-23T05:20:09.156Z,17.90
2018-07-23T05:22:37.204Z,17.90
2018-07-23T05:25:05.284Z,18.00
2018-07-23T05:30:02.029Z,18.20
2018-07-23T05:34:58.092Z,18.30
2018-07-23T05:39:54.006Z,18.40
2018-07-23T05:42:22.064Z,18.50
2018-07-23T05:44:50.208Z,18.70
2018-07-23T05:47:18.257Z,18.70
2018-07-23T05:49:46.322Z,18.80
2018-07-23T05:52:14.397Z,18.90
2018-07-23T05:54:42.680Z,19.00
2018-07-23T05:57:10.760Z,19.10
2018-07-23T05:59:38.824Z,19.10
2018-07-23T06:02:06.919Z,19.10
2018-07-23T06:07:02.999Z,19.20
2018-07-23T06:09:30.936Z,19.10
2018-07-23T06:11:58.984Z,19.20
2018-07-23T06:14:27.040Z,19.30
2018-07-23T06:16:55.120Z,19.50
2018-07-23T06:19:23.153Z,19.70
2018-07-23T06:21:51.200Z,19.80
2018-07-23T06:24:19.264Z,20.00
2018-07-23T06:26:47.336Z,20.30
2018-07-23T06:29:15.400Z,20.40
2018-07-23T06:31:43.492Z,20.40
2018-07-23T06:34:11.541Z,20.50
2018-07-23T06:36:39.587Z,20.60
2018-07-23T06:41:36.549Z,20.90
2018-07-23T06:44:04.601Z,21.10
2018-07-23T06:46:32.712Z,21.10
2018-07-23T06:49:00.849Z,21.20
2018-07-23T06:51:28.877Z,21.30
2018-07-23T06:53:56.991Z,21.40
2018-07-23T06:56:24.997Z,21.40
2018-07-23T06:58:53.384Z,21.50
2018-07-23T07:01:21.485Z,21.70
2018-07-23T07:03:49.478Z,21.80
2018-07-23T07:06:17.955Z,21.80
2018-07-23T07:08:45.945Z,21.90
2018-07-23T07:11:14.173Z,22.20
2018-07-23T07:13:42.251Z,22.40
2018-07-23T07:16:10.270Z,22.60
2018-07-23T07:18:38.592Z,22.90
2018-07-23T07:21:07.128Z,23.10
2018-07-23T07:23:35.176Z,23.30
2018-07-23T07:26:03.236Z,23.50
2018-07-23T07:28:31.308Z,23.60
2018-07-23T07:30:59.373Z,23.70
2018-07-23T07:33:27.486Z,23.90
2018-07-23T07:35:55.531Z,24.10
2018-07-23T07:38:23.639Z,24.30
2018-07-23T07:40:51.666Z,24.60
2018-07-23T07:43:19.712Z,25.00
2018-07-23T07:45:47.756Z,25.40
2018-07-23T07:48:15.824Z,25.80
2018-07-23T07:50:43.964Z,26.30
2018-07-23T07:53:12.077Z,27.00
2018-07-23T07:55:40.125Z,27.80
2018-07-23T07:58:08.281Z,28.30
2018-07-23T08:00:37.010Z,28.20
2018-07-23T08:03:05.043Z,28.90
2018-07-23T08:05:33.144Z,29.50
2018-07-23T08:08:01.200Z,29.90
2018-07-23T08:10:29.244Z,30.40
2018-07-23T08:12:57.381Z,30.80
2018-07-23T08:15:25.428Z,30.90
2018-07-23T08:17:53.572Z,30.80
2018-07-23T08:20:21.592Z,30.90
2018-07-23T08:22:49.653Z,30.90
2018-07-23T08:25:17.710Z,30.90
2018-07-23T08:27:45.829Z,30.80
2018-07-23T08:30:13.860Z,30.70
2018-07-23T08:32:41.962Z,30.90
2018-07-23T08:35:10.017Z,30.80
2018-07-23T08:37:38.057Z,31.00
2018-07-23T08:40:06.448Z,30.90
2018-07-23T08:42:34.624Z,31.10
2018-07-23T08:45:02.839Z,31.10
2018-07-23T08:47:30.812Z,31.20
2018-07-23T08:49:58.848Z,31.20
2018-07-23T08:52:26.908Z,31.40
2018-07-23T08:54:54.960Z,31.40
2018-07-23T08:57:23.113Z,31.40
2018-07-23T08:59:51.088Z,31.40
2018-07-23T09:02:19.168Z,31.40
2018-07-23T09:04:47.184Z,31.50
2018-07-23T09:07:15.240Z,31.30
2018-07-23T09:09:43.269Z,31.30
2018-07-23T09:12:11.336Z,31.40
2018-07-23T09:14:39.433Z,31.60
2018-07-23T09:17:07.528Z,31.70
2018-07-23T09:19:36.165Z,31.60
2018-07-23T09:22:04.523Z,31.50
2018-07-23T09:24:32.706Z,31.70
2018-07-23T09:27:00.864Z,31.70
2018-07-23T09:29:28.957Z,31.50
2018-07-23T09:31:57.006Z,31.60
2018-07-23T09:36:52.941Z,31.70
2018-07-23T09:39:20.997Z,31.70
2018-07-23T09:41:49.056Z,31.60
2018-07-23T09:44:17.113Z,31.70
2018-07-23T09:46:45.169Z,32.00
2018-07-23T09:49:13.220Z,32.20
2018-07-23T09:51:41.289Z,32.30
2018-07-23T09:54:09.331Z,32.20
2018-07-23T09:56:37.372Z,32.30
2018-07-23T09:59:05.660Z,32.40
2018-07-23T10:01:33.769Z,32.40
2018-07-23T10:04:01.818Z,32.50
2018-07-23T10:06:29.873Z,32.30
2018-07-23T10:08:57.929Z,32.40
2018-07-23T10:13:53.959Z,32.40
2018-07-23T10:16:22.833Z,32.30
2018-07-23T10:18:50.950Z,32.20
2018-07-23T10:21:19.012Z,32.10
2018-07-23T10:26:14.924Z,32.30
2018-07-23T10:28:42.996Z,32.50
2018-07-23T10:31:11.056Z,32.40
2018-07-23T10:33:39.120Z,32.20
2018-07-23T10:36:07.325Z,32.20
2018-07-23T10:38:35.369Z,32.10
2018-07-23T10:41:03.433Z,32.10
2018-07-23T10:43:31.477Z,32.10
2018-07-23T10:45:59.737Z,32.10
2018-07-23T10:48:27.768Z,32.00
2018-07-23T10:53:24.188Z,32.20
2018-07-23T10:55:52.248Z,32.30
2018-07-23T10:58:20.341Z,32.30
2018-07-23T11:00:48.416Z,32.10
2018-07-23T11:03:16.471Z,31.90
2018-07-23T11:05:44.608Z,31.80
2018-07-23T11:08:12.668Z,31.80
2018-07-23T11:10:40.753Z,31.70
2018-07-23T11:13:08.810Z,31.60
2018-07-23T11:15:36.908Z,31.50
2018-07-23T11:18:05.014Z,31.50
2018-07-23T11:20:33.056Z,31.20
2018-07-23T11:23:01.125Z,31.10
2018-07-23T11:25:40.666Z,31.00
2018-07-23T11:27:57.344Z,31.00
2018-07-23T11:30:25.376Z,31.00
2018-07-23T11:32:53.433Z,31.00
2018-07-23T11:35:21.461Z,30.90
2018-07-23T11:37:49.517Z,30.70
2018-07-23T11:40:17.554Z,30.60
2018-07-23T11:42:45.648Z,30.50
2018-07-23T11:45:13.671Z,30.30
2018-07-23T11:47:41.718Z,30.20
2018-07-23T11:50:09.933Z,30.10
2018-07-23T11:52:38.312Z,30.00
2018-07-23T11:55:06.368Z,29.90
2018-07-23T11:57:34.420Z,29.80
2018-07-23T12:00:02.485Z,29.80
2018-07-23T12:02:30.516Z,29.60
2018-07-23T12:04:58.636Z,29.70
2018-07-23T12:07:26.707Z,29.80
2018-07-23T12:09:54.769Z,29.80
2018-07-23T12:12:22.831Z,29.80
2018-07-23T12:14:50.868Z,29.70
2018-07-23T12:17:19.001Z,29.50
2018-07-23T12:19:47.172Z,29.40
2018-07-23T12:22:15.654Z,29.40
2018-07-23T12:24:43.833Z,29.40
2018-07-23T12:27:11.872Z,29.40
2018-07-23T12:29:39.949Z,29.40
2018-07-23T12:32:08.185Z,29.40
2018-07-23T12:37:04.099Z,29.30
2018-07-23T12:39:32.245Z,29.20
2018-07-23T12:42:00.245Z,29.20
2018-07-23T12:44:28.273Z,29.20
2018-07-23T12:46:56.356Z,29.20
2018-07-23T12:49:24.421Z,29.20
2018-07-23T12:51:52.469Z,29.30
2018-07-23T12:54:20.533Z,29.30
2018-07-23T12:56:48.662Z,29.30
2018-07-23T12:59:16.741Z,29.30
2018-07-23T13:04:12.608Z,29.20
2018-07-23T13:20:15.692Z,29.00
2018-07-23T13:22:43.720Z,28.90
2018-07-23T13:25:11.796Z,28.90
2018-07-23T13:27:39.881Z,28.80
2018-07-23T13:30:07.948Z,28.70
2018-07-23T13:32:36.005Z,28.80
2018-07-23T13:35:04.265Z,28.80
2018-07-23T13:37:32.328Z,28.80
2018-07-23T13:40:00.388Z,28.90
2018-07-23T13:42:28.512Z,28.80
2018-07-23T13:44:56.581Z,28.80
2018-07-23T13:47:24.860Z,28.80
2018-07-23T13:49:52.922Z,28.80
2018-07-23T13:52:21.004Z,28.90
2018-07-23T13:54:49.052Z,28.90
2018-07-23T13:57:17.168Z,28.80
2018-07-23T13:59:45.213Z,28.80
2018-07-23T14:02:13.417Z,28.80
2018-07-23T14:04:41.613Z,28.70
2018-07-23T14:07:18.472Z,28.60
2018-07-23T14:09:46.632Z,28.60
2018-07-23T14:12:14.715Z,28.70
2018-07-23T14:14:42.757Z,28.70
2018-07-23T14:17:10.824Z,28.70
2018-07-23T14:19:38.880Z,28.80
2018-07-23T14:22:07.089Z,28.80
2018-07-23T14:24:35.120Z,28.80
2018-07-23T14:27:03.189Z,28.90
2018-07-23T14:29:31.241Z,28.90
2018-07-23T14:31:59.271Z,28.80
2018-07-23T14:34:27.357Z,28.80
2018-07-23T14:36:55.396Z,28.80
2018-07-23T14:41:51.293Z,28.70
2018-07-23T14:44:19.381Z,28.70
2018-07-23T14:46:47.401Z,28.70
2018-07-23T14:49:15.482Z,28.70
2018-07-23T14:51:43.521Z,28.70
2018-07-23T14:54:11.578Z,28.70
2018-07-23T14:56:39.648Z,28.70
2018-07-23T14:59:07.684Z,28.70
2018-07-23T15:01:35.729Z,28.70
2018-07-23T15:04:03.809Z,28.70
2018-07-23T15:06:31.845Z,28.70
2018-07-23T15:08:59.913Z,28.70
2018-07-23T15:11:27.957Z,28.70
2018-07-23T15:13:56.033Z,28.70
2018-07-23T15:16:24.085Z,28.80
2018-07-23T15:18:52.188Z,28.80
2018-07-23T15:21:20.248Z,28.80
2018-07-23T15:23:48.292Z,28.80
2018-07-23T15:26:16.346Z,28.70
2018-07-23T15:28:44.412Z,28.60
2018-07-23T15:31:12.486Z,28.60
2018-07-23T15:33:40.561Z,28.60
2018-07-23T15:36:08.628Z,28.50
2018-07-23T15:38:36.734Z,28.50
2018-07-23T15:41:04.740Z,28.50
2018-07-23T15:43:32.817Z,28.40
2018-07-23T15:46:01.021Z,28.50
2018-07-23T15:48:28.923Z,28.50
2018-07-23T15:50:57.004Z,28.60
2018-07-23T15:53:25.060Z,28.50
2018-07-23T15:55:53.108Z,28.50
2018-07-23T15:58:21.168Z,28.50
2018-07-23T16:00:49.274Z,28.50
2018-07-23T16:03:17.350Z,28.50
2018-07-23T16:05:45.408Z,28.40
2018-07-23T16:08:13.448Z,28.40
2018-07-23T16:10:41.518Z,28.40
2018-07-23T16:13:09.540Z,28.40
2018-07-23T16:15:37.597Z,28.40
2018-07-23T16:18:05.660Z,28.30
2018-07-23T16:20:33.713Z,28.30
2018-07-23T16:23:01.744Z,28.30
2018-07-23T16:25:29.788Z,28.30
2018-07-23T16:27:57.850Z,28.30
2018-07-23T16:30:25.921Z,28.30
2018-07-23T16:32:53.942Z,28.30
2018-07-23T16:35:21.987Z,28.30
2018-07-23T16:37:50.025Z,28.20
2018-07-23T16:40:18.064Z,28.20
2018-07-23T16:42:46.125Z,28.20
2018-07-23T16:45:14.894Z,28.20
2018-07-23T16:47:42.931Z,28.20
2018-07-23T16:50:11.087Z,28.20
2018-07-23T16:52:39.161Z,28.20
2018-07-23T16:55:07.188Z,28.10
2018-07-23T16:57:35.232Z,28.20
2018-07-23T17:00:03.396Z,28.10
2018-07-23T17:02:31.364Z,28.20
2018-07-23T17:04:59.390Z,28.10
2018-07-23T17:07:27.504Z,28.10
2018-07-23T17:09:55.551Z,28.10
2018-07-23T17:12:23.627Z,28.10
2018-07-23T17:14:51.664Z,28.10
2018-07-23T17:17:19.716Z,28.00
2018-07-23T17:19:47.756Z,28.00
2018-07-23T17:22:15.827Z,28.10
2018-07-23T17:24:44.098Z,28.00
2018-07-23T17:27:12.156Z,28.00
2018-07-23T17:29:40.198Z,28.00
2018-07-23T17:32:08.264Z,28.00
2018-07-23T17:34:36.311Z,28.00
2018-07-23T17:37:04.460Z,27.90
2018-07-23T17:42:00.348Z,27.90
2018-07-23T17:44:28.468Z,27.90
2018-07-23T17:46:56.497Z,27.90
2018-07-23T17:49:24.525Z,27.80
2018-07-23T17:51:52.594Z,27.80
2018-07-23T17:54:20.621Z,27.90
2018-07-23T17:56:48.658Z,27.90
2018-07-23T17:59:16.708Z,27.90
2018-07-23T18:01:44.744Z,27.80
2018-07-23T18:04:12.805Z,27.80
2018-07-23T18:06:40.881Z,27.80
2018-07-23T18:11:38.521Z,27.80
2018-07-23T18:14:06.599Z,27.70
2018-07-23T18:16:34.663Z,27.70
2018-07-23T18:19:02.948Z,27.60
2018-07-23T18:21:30.989Z,27.60
2018-07-23T18:23:59.037Z,27.50
2018-07-23T18:26:27.066Z,27.50
2018-07-23T18:28:55.113Z,27.50
2018-07-23T18:31:23.146Z,27.50
2018-07-23T18:33:51.209Z,27.40
2018-07-23T18:36:19.419Z,27.40
2018-07-23T18:38:47.547Z,27.40
2018-07-23T18:41:15.892Z,27.40
2018-07-23T18:43:43.945Z,27.40
2018-07-23T18:46:11.988Z,27.40
2018-07-23T18:49:50.279Z,27.30
2018-07-23T18:52:18.941Z,27.30
2018-07-23T18:54:48.272Z,27.30
2018-07-23T18:57:16.332Z,27.30
2018-07-23T18:59:44.407Z,27.30
2018-07-23T19:02:13.780Z,27.30
2018-07-23T19:04:42.520Z,27.20
2018-07-23T19:07:10.630Z,27.20
2018-07-23T19:09:38.680Z,27.20
2018-07-23T19:12:07.203Z,27.10
2018-07-23T19:14:35.310Z,27.10
2018-07-23T19:17:04.428Z,27.10
2018-07-23T19:19:32.485Z,27.00
2018-07-23T19:22:00.560Z,26.90
2018-07-23T19:24:28.612Z,26.90
2018-07-23T19:26:57.848Z,26.80
2018-07-23T19:29:25.913Z,26.80
2018-07-23T19:31:54.016Z,26.80
2018-07-23T19:34:22.072Z,26.70
2018-07-23T19:36:50.224Z,26.60
2018-07-23T19:39:19.488Z,26.60
2018-07-23T19:41:47.559Z,26.60
2018-07-23T19:44:15.624Z,26.50
2018-07-23T19:46:43.677Z,26.40
2018-07-23T19:49:11.734Z,26.30
2018-07-23T19:51:39.849Z,26.30
2018-07-23T19:54:08.496Z,26.20
2018-07-23T19:56:36.556Z,26.20
2018-07-23T19:59:04.628Z,26.10
2018-07-23T20:01:32.869Z,26.10
2018-07-23T20:04:01.041Z,26.00
2018-07-23T20:06:29.597Z,26.00
2018-07-23T20:08:58.748Z,25.90
2018-07-23T20:11:27.545Z,25.90
2018-07-23T20:13:55.612Z,25.80
2018-07-23T20:16:23.653Z,25.80
2018-07-23T20:18:51.756Z,25.70
2018-07-23T20:21:19.801Z,25.70
2018-07-23T20:23:47.864Z,25.70
2018-07-23T20:26:15.900Z,25.60
2018-07-23T20:28:43.980Z,25.50
2018-07-23T20:31:12.117Z,25.50
2018-07-23T20:33:40.185Z,25.50
2018-07-23T20:36:08.571Z,25.40
2018-07-23T20:38:36.869Z,25.40
2018-07-23T20:41:04.960Z,25.40
2018-07-23T20:43:33.714Z,25.30
2018-07-23T20:46:02.145Z,25.30
2018-07-23T20:48:30.176Z,25.20
2018-07-23T20:50:58.901Z,25.20
2018-07-23T20:53:26.965Z,25.10
2018-07-23T20:55:56.779Z,25.10
2018-07-23T20:58:25.985Z,25.00
2018-07-23T21:00:54.051Z,24.90
2018-07-23T21:03:22.072Z,24.90
2018-07-23T21:05:51.264Z,24.80
2018-07-23T21:08:19.328Z,24.80
2018-07-23T21:10:47.397Z,24.80
2018-07-23T21:13:16.964Z,24.70
2018-07-23T21:15:45.589Z,24.70
2018-07-23T21:18:13.595Z,24.60
2018-07-23T21:20:42.112Z,24.60
2018-07-23T21:23:10.869Z,24.60
2018-07-23T21:25:38.979Z,24.50
2018-07-23T21:28:08.258Z,24.50
2018-07-23T21:30:37.307Z,24.40
2018-07-23T21:33:06.857Z,24.30
2018-07-23T21:35:35.073Z,24.20
2018-07-23T21:38:03.188Z,24.20
2018-07-23T21:40:31.229Z,24.10
2018-07-23T21:42:59.333Z,24.10
2018-07-23T21:45:27.473Z,24.10
2018-07-23T21:48:00.027Z,24.10
2018-07-23T21:50:28.212Z,24.00
2018-07-23T21:52:56.312Z,24.00
2018-07-23T21:55:24.468Z,24.00
2018-07-23T22:00:20.381Z,24.00
2018-07-23T22:02:48.464Z,23.90
2018-07-23T22:05:16.551Z,23.90
2018-07-23T22:07:44.585Z,23.80
2018-07-23T22:10:12.653Z,23.70
2018-07-23T22:12:40.740Z,23.70
2018-07-23T22:15:10.279Z,23.70
2018-07-23T22:17:38.368Z,23.60
2018-07-23T22:20:07.145Z,23.60
2018-07-23T22:22:35.227Z,23.60
2018-07-23T22:25:03.484Z,23.50
2018-07-23T22:27:31.700Z,23.40
2018-07-23T22:32:27.644Z,23.30
2018-07-23T22:34:55.749Z,23.30
2018-07-23T22:37:23.820Z,23.30
2018-07-23T22:39:51.884Z,23.20
2018-07-23T22:42:19.947Z,23.10
2018-07-23T22:44:50.074Z,23.10
2018-07-23T22:47:18.285Z,23.00
2018-07-23T22:49:46.332Z,23.00
2018-07-23T22:54:42.232Z,22.90
2018-07-23T22:57:10.493Z,22.80
2018-07-23T22:59:38.570Z,22.80
2018-07-23T23:02:07.176Z,22.80
2018-07-23T23:04:35.248Z,22.70
2018-07-23T23:07:03.332Z,22.80
2018-07-23T23:09:31.380Z,22.80
2018-07-23T23:11:59.450Z,22.80
2018-07-23T23:14:27.516Z,22.90
2018-07-23T23:16:55.636Z,22.90
2018-07-23T23:19:23.692Z,22.80
2018-07-23T23:21:51.865Z,22.70
2018-07-23T23:24:19.928Z,22.70
2018-07-23T23:26:47.976Z,22.70
2018-07-23T23:29:16.068Z,22.60
2018-07-23T23:31:44.117Z,22.60
2018-07-23T23:34:12.220Z,22.60
2018-07-23T23:41:36.096Z,22.70
2018-07-23T23:44:04.184Z,22.70
2018-07-23T23:46:35.181Z,22.70
2018-07-23T23:49:03.253Z,22.60
2018-07-23T23:51:31.464Z,22.50
2018-07-23T23:53:59.872Z,22.50
2018-07-23T23:56:27.941Z,22.40
2018-07-23T23:58:56.181Z,22.40
